createdAt,value
2018-07-01T00:01:09.720Z,20.20
2018-07-01T00:03:37.908Z,20.20
2018-07-01T00:06:06.086Z,20.20
2018-07-01T00:08:34.261Z,20.10
2018-07-01T00:11:02.446Z,20.00
2018-07-01T00:13:30.607Z,20.00
2018-07-01T00:15:58.780Z,19.90
2018-07-01T00:18:26.931Z,19.90
2018-07-01T00:20:55.162Z,19.80
2018-07-01T00:23:23.371Z,19.80
2018-07-01T00:25:51.598Z,19.80
2018-07-01T00:28:19.756Z,19.80
2018-07-01T00:30:48.214Z,19.80
2018-07-01T00:33:16.365Z,19.70
2018-07-01T00:35:44.544Z,19.70
2018-07-01T00:38:14.495Z,19.70
2018-07-01T00:40:42.716Z,19.70
2018-07-01T00:45:38.843Z,19.50
2018-07-01T00:48:07.116Z,19.50
2018-07-01T00:50:35.303Z,19.50
2018-07-01T00:53:03.483Z,19.40
2018-07-01T00:55:31.621Z,19.30
2018-07-01T00:57:59.822Z,19.30
2018-07-01T01:00:33.214Z,19.20
2018-07-01T01:03:02.502Z,19.30
2018-07-01T01:05:30.894Z,19.20
2018-07-01T01:07:59.585Z,19.10
2018-07-01T01:10:28.075Z,19.10
2018-07-01T01:12:57.450Z,19.10
2018-07-01T01:15:25.619Z,19.10
2018-07-01T01:17:54.124Z,19.00
2018-07-01T01:20:22.287Z,19.10
2018-07-01T01:22:50.505Z,19.00
2018-07-01T01:25:18.646Z,18.90
2018-07-01T01:27:46.785Z,18.90
2018-07-01T01:30:14.949Z,18.90
2018-07-01T01:32:43.105Z,18.90
2018-07-01T01:35:11.267Z,18.80
2018-07-01T01:37:39.705Z,18.70
2018-07-01T01:40:09.604Z,18.70
2018-07-01T01:42:41.577Z,18.70
2018-07-01T01:45:20.523Z,18.70
2018-07-01T01:47:59.039Z,18.60
2018-07-01T01:50:33.681Z,18.50
2018-07-01T01:53:07.219Z,18.50
2018-07-01T01:56:40.526Z,18.50
2018-07-01T01:59:16.307Z,18.40
2018-07-01T02:01:48.675Z,18.40
2018-07-01T02:04:27.192Z,18.40
2018-07-01T02:06:57.844Z,18.30
2018-07-01T02:09:30.846Z,18.30
2018-07-01T02:12:00.349Z,18.20
2018-07-01T02:14:37.791Z,18.20
2018-07-01T02:17:08.406Z,18.20
2018-07-01T02:19:36.595Z,18.10
2018-07-01T02:22:07.235Z,18.00
2018-07-01T02:24:40.241Z,17.90
2018-07-01T02:27:08.382Z,17.90
2018-07-01T02:29:36.537Z,17.90
2018-07-01T02:32:04.684Z,17.80
2018-07-01T02:34:32.809Z,17.80
2018-07-01T02:37:01.258Z,17.80
2018-07-01T02:39:29.503Z,17.70
2018-07-01T02:41:57.658Z,17.60
2018-07-01T02:44:25.791Z,17.70
2018-07-01T02:46:54.053Z,17.70
2018-07-01T02:49:22.218Z,17.70
2018-07-01T02:51:50.342Z,17.60
2018-07-01T02:54:18.528Z,17.50
2018-07-01T02:56:46.696Z,17.50
2018-07-01T02:59:14.846Z,17.50
2018-07-01T03:01:42.988Z,17.40
2018-07-01T03:04:11.107Z,17.40
2018-07-01T03:06:39.198Z,17.40
2018-07-01T03:09:10.162Z,17.40
2018-07-01T03:11:38.286Z,17.30
2018-07-01T03:14:07.339Z,17.20
2018-07-01T03:16:35.524Z,17.10
2018-07-01T03:19:03.942Z,17.20
2018-07-01T03:21:32.249Z,17.20
2018-07-01T03:24:00.388Z,17.10
2018-07-01T03:26:28.568Z,17.10
2018-07-01T03:28:56.733Z,17.00
2018-07-01T03:31:24.898Z,17.00
2018-07-01T03:33:53.006Z,16.90
2018-07-01T03:36:21.155Z,16.90
2018-07-01T03:38:49.294Z,16.80
2018-07-01T03:41:17.394Z,16.80
2018-07-01T03:43:45.558Z,16.80
2018-07-01T03:46:13.693Z,16.80
2018-07-01T03:48:41.822Z,16.80
2018-07-01T03:51:09.976Z,16.80
2018-07-01T03:53:38.133Z,16.80
2018-07-01T03:56:06.290Z,16.80
2018-07-01T03:58:34.464Z,16.80
2018-07-01T04:01:02.581Z,16.80
2018-07-01T04:03:30.744Z,16.80
2018-07-01T04:05:58.929Z,16.80
2018-07-01T04:08:27.109Z,16.80
2018-07-01T04:10:55.369Z,16.80
2018-07-01T04:13:23.542Z,16.90
2018-07-01T04:15:51.717Z,17.00
2018-07-01T04:18:19.854Z,17.00
2018-07-01T04:20:47.962Z,17.00
2018-07-01T04:23:16.165Z,17.00
2018-07-01T04:25:44.310Z,17.00
2018-07-01T04:28:12.424Z,17.00
2018-07-01T04:30:40.574Z,17.00
2018-07-01T04:33:08.769Z,16.90
2018-07-01T04:35:36.937Z,16.80
2018-07-01T04:38:05.106Z,16.80
2018-07-01T04:40:33.262Z,16.70
2018-07-01T04:43:01.426Z,16.80
2018-07-01T04:45:29.600Z,16.70
2018-07-01T04:47:57.773Z,16.80
2018-07-01T04:50:25.952Z,16.90
2018-07-01T04:52:54.125Z,16.90
2018-07-01T04:55:22.397Z,17.00
2018-07-01T04:57:50.476Z,17.00
2018-07-01T05:00:18.643Z,17.00
2018-07-01T05:02:46.746Z,17.10
2018-07-01T05:05:14.890Z,17.10
2018-07-01T05:07:43.031Z,17.20
2018-07-01T05:10:11.711Z,17.20
2018-07-01T05:12:40.093Z,17.20
2018-07-01T05:17:42.990Z,17.40
2018-07-01T05:20:11.105Z,17.50
2018-07-01T05:22:39.233Z,17.60
2018-07-01T05:25:07.367Z,17.70
2018-07-01T05:27:35.665Z,17.90
2018-07-01T05:30:03.918Z,17.90
2018-07-01T05:32:32.069Z,18.10
2018-07-01T05:37:28.242Z,18.40
2018-07-01T05:39:56.431Z,18.60
2018-07-01T05:42:24.676Z,18.80
2018-07-01T05:44:52.871Z,19.00
2018-07-01T05:47:21.022Z,19.20
2018-07-01T05:49:49.145Z,19.40
2018-07-01T05:52:17.278Z,19.50
2018-07-01T05:54:45.444Z,19.70
2018-07-01T05:57:13.615Z,20.00
2018-07-01T05:59:41.736Z,20.10
2018-07-01T06:02:09.861Z,20.30
2018-07-01T06:04:37.998Z,20.30
2018-07-01T06:07:06.238Z,20.50
2018-07-01T06:09:34.416Z,20.70
2018-07-01T06:12:02.559Z,20.80
2018-07-01T06:14:30.762Z,21.20
2018-07-01T06:16:59.156Z,21.40
2018-07-01T06:19:27.330Z,21.40
2018-07-01T06:21:55.488Z,21.50
2018-07-01T06:24:23.642Z,21.60
2018-07-01T06:26:51.762Z,21.70
2018-07-01T06:29:19.906Z,21.80
2018-07-01T06:31:48.048Z,21.90
2018-07-01T06:34:16.228Z,21.90
2018-07-01T06:36:44.345Z,22.10
2018-07-01T06:39:12.929Z,22.20
2018-07-01T06:41:44.305Z,22.30
2018-07-01T06:44:12.458Z,22.50
2018-07-01T06:46:40.633Z,22.30
2018-07-01T06:49:09.832Z,22.40
2018-07-01T06:51:37.976Z,22.60
2018-07-01T06:54:06.169Z,22.70
2018-07-01T06:56:34.338Z,22.70
2018-07-01T06:59:02.467Z,22.80
2018-07-01T07:01:30.666Z,23.00
2018-07-01T07:03:58.898Z,23.10
2018-07-01T07:06:27.074Z,23.00
2018-07-01T07:08:55.266Z,23.10
2018-07-01T07:11:24.618Z,23.20
2018-07-01T07:13:52.766Z,23.20
2018-07-01T07:16:21.001Z,23.30
2018-07-01T07:18:49.051Z,23.40
2018-07-01T07:21:17.194Z,23.40
2018-07-01T07:23:45.374Z,23.50
2018-07-01T07:26:13.489Z,23.70
2018-07-01T07:28:41.658Z,23.90
2018-07-01T07:31:09.796Z,23.90
2018-07-01T07:33:37.908Z,24.00
2018-07-01T07:36:06.045Z,24.10
2018-07-01T07:38:34.181Z,24.10
2018-07-01T07:41:02.409Z,24.20
2018-07-01T07:43:30.563Z,24.40
2018-07-01T07:45:58.697Z,24.40
2018-07-01T07:48:26.825Z,24.40
2018-07-01T07:50:54.985Z,24.40
2018-07-01T07:53:23.160Z,24.50
2018-07-01T07:55:51.295Z,24.60
2018-07-01T07:58:19.435Z,24.60
2018-07-01T08:00:47.579Z,24.70
2018-07-01T08:03:15.742Z,24.90
2018-07-01T08:05:43.917Z,24.90
2018-07-01T08:08:13.140Z,24.80
2018-07-01T08:10:41.339Z,24.90
2018-07-01T08:13:09.606Z,24.90
2018-07-01T08:15:37.755Z,24.80
2018-07-01T08:18:06.144Z,24.90
2018-07-01T08:20:34.300Z,25.00
2018-07-01T08:23:02.503Z,25.10
2018-07-01T08:25:30.731Z,25.10
2018-07-01T08:27:59.045Z,25.10
2018-07-01T08:30:27.183Z,25.00
2018-07-01T08:32:55.313Z,25.00
2018-07-01T08:35:23.567Z,25.20
2018-07-01T08:37:51.717Z,25.20
2018-07-01T08:40:19.958Z,25.20
2018-07-01T08:42:48.065Z,25.30
2018-07-01T08:45:16.182Z,25.40
2018-07-01T08:47:44.320Z,25.60
2018-07-01T08:50:12.465Z,25.70
2018-07-01T08:52:40.639Z,25.80
2018-07-01T08:57:37.023Z,26.00
2018-07-01T09:00:06.791Z,26.20
2018-07-01T09:02:34.947Z,26.20
2018-07-01T09:05:03.176Z,26.10
2018-07-01T09:07:31.384Z,26.10
2018-07-01T09:09:59.511Z,26.00
2018-07-01T09:12:27.672Z,26.30
2018-07-01T09:14:56.882Z,26.30
2018-07-01T09:17:25.047Z,26.40
2018-07-01T09:19:53.225Z,26.50
2018-07-01T09:22:21.382Z,26.80
2018-07-01T09:24:49.512Z,26.70
2018-07-01T09:27:17.638Z,26.80
2018-07-01T09:29:51.160Z,26.80
2018-07-01T09:32:19.272Z,26.90
2018-07-01T09:34:47.406Z,27.10
2018-07-01T09:37:15.516Z,27.00
2018-07-01T09:39:45.563Z,27.10
2018-07-01T09:42:13.719Z,27.20
2018-07-01T09:47:58.783Z,27.30
2018-07-01T09:50:27.017Z,27.50
2018-07-01T09:52:55.853Z,27.70
2018-07-01T09:55:24.006Z,27.80
2018-07-01T09:57:52.566Z,27.80
2018-07-01T10:00:20.698Z,27.80
2018-07-01T10:02:48.834Z,28.00
2018-07-01T10:05:17.001Z,27.80
2018-07-01T10:07:45.362Z,27.60
2018-07-01T10:10:13.513Z,27.70
2018-07-01T10:12:41.796Z,27.90
2018-07-01T10:15:10.006Z,27.90
2018-07-01T10:17:38.155Z,28.00
2018-07-01T10:20:06.318Z,28.00
2018-07-01T10:22:34.489Z,28.10
2018-07-01T10:25:02.681Z,27.90
2018-07-01T10:27:30.954Z,27.90
2018-07-01T10:33:26.163Z,28.20
2018-07-01T10:38:58.500Z,28.50
2018-07-01T10:41:28.411Z,28.30
2018-07-01T10:44:01.490Z,28.20
2018-07-01T10:46:29.657Z,28.20
2018-07-01T10:48:57.866Z,28.20
2018-07-01T10:51:26.045Z,28.30
2018-07-01T10:53:54.556Z,28.40
2018-07-01T10:56:22.697Z,28.60
2018-07-01T10:58:50.901Z,28.50
2018-07-01T11:01:19.110Z,28.30
2018-07-01T11:03:47.397Z,28.10
2018-07-01T11:06:15.732Z,27.70
2018-07-01T11:08:43.738Z,27.90
2018-07-01T11:11:11.913Z,28.00
2018-07-01T11:13:40.122Z,28.30
2018-07-01T11:16:13.161Z,28.50
2018-07-01T11:21:24.436Z,28.60
2018-07-01T11:23:55.321Z,28.60
2018-07-01T11:26:52.603Z,28.60
2018-07-01T11:29:35.222Z,28.50
2018-07-01T11:32:03.364Z,28.40
2018-07-01T11:34:32.517Z,28.50
2018-07-01T11:37:00.836Z,28.50
2018-07-01T11:39:29.087Z,28.60
2018-07-01T11:41:57.305Z,28.70
2018-07-01T11:44:25.503Z,28.60
2018-07-01T11:47:18.156Z,28.70
2018-07-01T11:49:46.310Z,28.80
2018-07-01T11:52:15.256Z,28.90
2018-07-01T11:54:43.480Z,28.80
2018-07-01T11:57:36.343Z,28.70
2018-07-01T12:00:05.186Z,28.70
2018-07-01T12:02:33.375Z,28.70
2018-07-01T12:05:16.205Z,28.90
2018-07-01T12:07:57.286Z,29.00
2018-07-01T12:10:53.724Z,29.10
2018-07-01T12:13:27.476Z,29.20
2018-07-01T12:15:55.713Z,29.10
2018-07-01T12:18:54.454Z,29.20
2018-07-01T12:21:27.802Z,29.30
2018-07-01T12:23:56.003Z,29.20
2018-07-01T12:26:25.242Z,29.20
2018-07-01T12:28:53.729Z,29.00
2018-07-01T12:31:25.892Z,29.00
2018-07-01T12:34:06.659Z,29.10
2018-07-01T15:39:24.374Z,29.20
2018-07-01T15:44:50.546Z,27.70
2018-07-01T15:47:19.718Z,27.70
2018-07-01T15:49:47.830Z,27.60
2018-07-01T15:52:15.964Z,27.60
2018-07-01T15:54:47.643Z,27.60
2018-07-01T15:57:15.793Z,27.60
2018-07-01T15:59:44.663Z,27.60
2018-07-01T16:02:12.808Z,27.50
2018-07-01T16:04:41.339Z,27.60
2018-07-01T16:07:09.488Z,27.60
2018-07-01T16:09:37.803Z,27.50
2018-07-01T16:12:06.748Z,27.40
2018-07-01T16:14:34.854Z,27.40
2018-07-01T16:17:03.126Z,27.40
2018-07-01T16:19:31.299Z,27.30
2018-07-01T16:21:59.454Z,27.30
2018-07-01T16:25:56.762Z,27.30
2018-07-01T16:28:30.424Z,27.30
2018-07-01T16:30:58.653Z,27.30
2018-07-01T16:40:36.099Z,27.10
2018-07-01T16:43:04.282Z,27.10
2018-07-01T16:45:32.764Z,27.10
2018-07-01T16:51:35.898Z,26.90
2018-07-01T16:54:09.986Z,26.90
2018-07-01T16:56:40.936Z,26.90
2018-07-01T16:59:09.256Z,26.90
2018-07-01T17:01:37.406Z,26.80
2018-07-01T17:04:05.597Z,26.80
2018-07-01T17:06:33.834Z,26.70
2018-07-01T17:09:02.059Z,26.60
2018-07-01T17:11:30.222Z,26.50
2018-07-01T17:14:05.561Z,26.50
2018-07-01T17:16:34.710Z,26.40
2018-07-01T17:19:03.088Z,26.40
2018-07-01T17:21:34.043Z,26.50
2018-07-01T17:24:02.377Z,26.50
2018-07-01T17:26:30.545Z,26.40
2018-07-01T17:29:00.331Z,26.40
2018-07-01T17:31:33.769Z,26.30
2018-07-01T17:34:01.966Z,26.30
2018-07-01T17:36:30.116Z,26.20
2018-07-01T17:38:58.233Z,26.20
2018-07-01T17:41:26.370Z,26.10
2018-07-01T17:43:55.602Z,25.90
2018-07-01T17:46:23.811Z,25.90
2018-07-01T17:48:51.998Z,25.90
2018-07-01T17:51:20.176Z,25.80
2018-07-01T17:53:55.162Z,25.80
2018-07-01T17:56:23.622Z,25.70
2018-07-01T17:58:52.031Z,25.70
2018-07-01T18:01:20.187Z,25.60
2018-07-01T18:03:48.903Z,25.50
2018-07-01T18:06:17.088Z,25.50
2018-07-01T18:08:45.245Z,25.40
2018-07-01T18:11:13.417Z,25.40
2018-07-01T18:13:41.533Z,25.30
2018-07-01T18:16:09.694Z,25.20
2018-07-01T18:18:38.897Z,25.10
2018-07-01T18:21:07.080Z,25.00
2018-07-01T18:24:02.955Z,25.00
2018-07-01T18:26:03.446Z,24.90
2018-07-01T18:28:45.184Z,24.90
2018-07-01T18:30:59.844Z,24.70
2018-07-01T18:33:27.962Z,24.60
2018-07-01T18:35:56.105Z,24.60
2018-07-01T18:38:24.214Z,24.50
2018-07-01T18:40:52.751Z,24.50
2018-07-01T18:43:20.542Z,24.50
2018-07-01T18:45:48.697Z,24.50
2018-07-01T18:48:16.874Z,24.40
2018-07-01T18:50:45.009Z,24.30
2018-07-01T18:53:13.152Z,24.10
2018-07-01T18:55:41.221Z,24.00
2018-07-01T18:58:09.366Z,23.90
2018-07-01T19:00:37.514Z,23.90
2018-07-01T19:03:05.658Z,23.80
2018-07-01T19:05:33.838Z,23.80
2018-07-01T19:08:02.015Z,23.80
2018-07-01T19:10:30.187Z,23.80
2018-07-01T19:12:58.348Z,23.60
2018-07-01T19:15:26.514Z,23.60
2018-07-01T19:17:54.646Z,23.60
2018-07-01T19:20:23.079Z,23.50
2018-07-01T19:22:51.204Z,23.40
2018-07-01T19:25:19.346Z,23.40
2018-07-01T19:27:47.521Z,23.30
2018-07-01T19:30:15.663Z,23.20
2018-07-01T19:32:43.814Z,23.10
2018-07-01T19:35:11.971Z,23.10
2018-07-01T19:37:40.186Z,23.00
2018-07-01T19:40:08.335Z,22.90
2018-07-01T19:42:36.699Z,22.80
2018-07-01T19:45:05.638Z,22.80
2018-07-01T19:47:34.316Z,22.80
2018-07-01T19:52:30.402Z,22.70
2018-07-01T19:54:58.504Z,22.60
2018-07-01T19:57:27.018Z,22.50
2018-07-01T19:59:55.174Z,22.40
2018-07-01T20:02:24.166Z,22.20
2018-07-01T20:04:52.644Z,22.20
2018-07-01T20:07:20.928Z,22.10
2018-07-01T20:12:17.038Z,21.90
2018-07-01T20:14:45.591Z,22.00
2018-07-01T20:17:13.740Z,21.90
2018-07-01T20:19:41.899Z,21.80
2018-07-01T20:22:10.419Z,21.70
2018-07-01T20:24:38.594Z,21.60
2018-07-01T20:27:06.769Z,21.60
2018-07-01T20:29:34.865Z,21.60
2018-07-01T20:32:04.094Z,21.50
2018-07-01T20:34:32.291Z,21.50
2018-07-01T20:37:00.442Z,21.50
2018-07-01T20:39:28.632Z,21.40
2018-07-01T20:41:56.774Z,21.30
2018-07-01T20:44:25.003Z,21.30
2018-07-01T20:46:53.188Z,21.20
2018-07-01T20:49:22.366Z,21.20
2018-07-01T20:51:50.929Z,21.10
2018-07-01T20:56:47.094Z,20.90
2018-07-01T20:59:15.469Z,20.80
2018-07-01T21:01:43.763Z,20.80
2018-07-01T21:04:11.926Z,20.80
2018-07-01T21:06:40.050Z,20.70
2018-07-01T21:09:09.754Z,20.60
2018-07-01T21:11:38.162Z,20.60
2018-07-01T21:14:06.446Z,20.50
2018-07-01T21:16:34.697Z,20.50
2018-07-01T21:19:03.204Z,20.40
2018-07-01T21:21:31.347Z,20.40
2018-07-01T21:23:59.629Z,20.30
2018-07-01T21:26:27.837Z,20.20
2018-07-01T21:28:57.059Z,20.20
2018-07-01T21:31:25.248Z,20.10
2018-07-01T21:33:53.389Z,20.20
2018-07-01T21:36:21.546Z,20.10
2018-07-01T21:38:49.783Z,20.00
2018-07-01T21:41:17.925Z,19.90
2018-07-01T21:43:46.172Z,19.80
2018-07-01T21:46:21.010Z,19.70
2018-07-01T21:48:49.228Z,19.70
2018-07-01T21:51:17.385Z,19.60
2018-07-01T21:53:45.551Z,19.50
2018-07-01T21:56:13.708Z,19.40
2018-07-01T21:58:41.924Z,19.40
2018-07-01T22:01:10.217Z,19.30
2018-07-01T22:03:38.393Z,19.30
2018-07-01T22:08:35.802Z,19.20
2018-07-01T22:11:21.072Z,19.20
2018-07-01T22:14:24.183Z,19.10
2018-07-01T22:16:52.334Z,19.20
2018-07-01T22:19:21.129Z,19.10
2018-07-01T22:21:50.254Z,19.10
2018-07-01T22:24:18.401Z,19.10
2018-07-01T22:26:46.554Z,19.00
2018-07-01T22:29:15.794Z,19.10
2018-07-01T22:31:43.916Z,19.10
2018-07-01T22:34:13.301Z,19.00
2018-07-01T22:36:42.419Z,18.90
2018-07-01T22:39:21.029Z,18.80
2018-07-01T22:41:50.663Z,18.80
2018-07-01T22:44:18.774Z,18.70
2018-07-01T22:46:47.583Z,18.70
2018-07-01T22:49:15.714Z,18.60
2018-07-01T22:51:43.859Z,18.60
2018-07-01T22:54:12.010Z,18.50
2018-07-01T22:56:40.175Z,18.40
2018-07-01T22:59:08.342Z,18.40
2018-07-01T23:02:42.805Z,18.40
2018-07-01T23:05:10.982Z,18.40
2018-07-01T23:07:39.119Z,18.30
2018-07-01T23:10:07.264Z,18.20
2018-07-01T23:12:35.512Z,18.10
2018-07-01T23:15:03.685Z,18.00
2018-07-01T23:17:32.023Z,18.00
2018-07-01T23:20:00.299Z,17.90
2018-07-01T23:22:28.426Z,17.90
2018-07-01T23:24:56.644Z,18.00
2018-07-01T23:27:24.728Z,17.90
2018-07-01T23:29:52.870Z,17.90
2018-07-01T23:32:21.023Z,17.90
2018-07-01T23:34:49.578Z,17.90
2018-07-01T23:37:17.732Z,17.90
2018-07-01T23:39:45.878Z,17.80
2018-07-01T23:42:14.334Z,17.70
2018-07-01T23:44:42.490Z,17.70
2018-07-01T23:47:10.687Z,17.60
2018-07-01T23:49:38.914Z,17.60
2018-07-01T23:52:07.152Z,17.60
2018-07-01T23:54:35.322Z,17.50
2018-07-01T23:57:04.084Z,17.40
2018-07-01T23:59:32.250Z,17.40
